sensor_id;sensor_type;location;lat;lon;timestamp;temperature;humidity
16643;DHT22;8435;52.184;5.406;2023-06-22T00:01:18;22.60;94.30
16643;DHT22;8435;52.184;5.406;2023-06-22T00:03:45;22.50;94.30
16643;DHT22;8435;52.184;5.406;2023-06-22T00:06:11;22.50;94.30
16643;DHT22;8435;52.184;5.406;2023-06-22T00:08:38;22.50;94.30
16643;DHT22;8435;52.184;5.406;2023-06-22T00:11:05;22.50;94.40
16643;DHT22;8435;52.184;5.406;2023-06-22T00:13:32;22.50;94.50
16643;DHT22;8435;52.184;5.406;2023-06-22T00:16:00;22.40;94.80
16643;DHT22;8435;52.184;5.406;2023-06-22T00:18:26;22.40;94.60
16643;DHT22;8435;52.184;5.406;2023-06-22T00:20:54;22.40;94.50
16643;DHT22;8435;52.184;5.406;2023-06-22T00:23:23;22.40;94.50
16643;DHT22;8435;52.184;5.406;2023-06-22T00:25:50;22.30;94.50
16643;DHT22;8435;52.184;5.406;2023-06-22T00:28:17;22.40;94.60
16643;DHT22;8435;52.184;5.406;2023-06-22T00:30:44;22.30;94.60
16643;DHT22;8435;52.184;5.406;2023-06-22T00:33:12;22.30;94.70
16643;DHT22;8435;52.184;5.406;2023-06-22T00:35:39;22.30;94.80
16643;DHT22;8435;52.184;5.406;2023-06-22T00:38:06;22.30;94.80
16643;DHT22;8435;52.184;5.406;2023-06-22T00:40:34;22.30;94.80
16643;DHT22;8435;52.184;5.406;2023-06-22T00:43:00;22.20;94.80
16643;DHT22;8435;52.184;5.406;2023-06-22T00:45:27;22.20;94.80
16643;DHT22;8435;52.184;5.406;2023-06-22T00:47:56;22.20;94.90
16643;DHT22;8435;52.184;5.406;2023-06-22T00:50:26;22.20;95.10
16643;DHT22;8435;52.184;5.406;2023-06-22T00:52:55;22.10;95.00
16643;DHT22;8435;52.184;5.406;2023-06-22T00:55:24;22.10;95.10
16643;DHT22;8435;52.184;5.406;2023-06-22T00:57:52;22.10;95.00
16643;DHT22;8435;52.184;5.406;2023-06-22T01:00:21;22.10;95.10
16643;DHT22;8435;52.184;5.406;2023-06-22T01:02:50;22.10;95.10
16643;DHT22;8435;52.184;5.406;2023-06-22T01:05:18;22.10;95.10
16643;DHT22;8435;52.184;5.406;2023-06-22T01:07:54;22.00;95.10
16643;DHT22;8435;52.184;5.406;2023-06-22T01:10:32;22.00;95.40
16643;DHT22;8435;52.184;5.406;2023-06-22T01:13:04;22.00;95.40
16643;DHT22;8435;52.184;5.406;2023-06-22T01:15:37;22.00;95.30
16643;DHT22;8435;52.184;5.406;2023-06-22T01:18:08;22.00;95.40
16643;DHT22;8435;52.184;5.406;2023-06-22T01:20:37;21.90;95.40
16643;DHT22;8435;52.184;5.406;2023-06-22T01:23:11;21.90;95.40
16643;DHT22;8435;52.184;5.406;2023-06-22T01:25:48;21.80;95.60
16643;DHT22;8435;52.184;5.406;2023-06-22T01:30:55;21.70;95.80
16643;DHT22;8435;52.184;5.406;2023-06-22T01:33:34;21.70;95.60
16643;DHT22;8435;52.184;5.406;2023-06-22T01:36:02;21.70;95.70
16643;DHT22;8435;52.184;5.406;2023-06-22T01:38:30;21.70;95.70
16643;DHT22;8435;52.184;5.406;2023-06-22T01:40:57;21.60;95.80
16643;DHT22;8435;52.184;5.406;2023-06-22T01:43:26;21.60;95.80
16643;DHT22;8435;52.184;5.406;2023-06-22T01:45:55;21.50;95.90
16643;DHT22;8435;52.184;5.406;2023-06-22T01:48:22;21.50;96.00
16643;DHT22;8435;52.184;5.406;2023-06-22T01:50:52;21.50;96.00
16643;DHT22;8435;52.184;5.406;2023-06-22T01:53:20;21.50;96.10
16643;DHT22;8435;52.184;5.406;2023-06-22T01:55:47;21.50;96.20
16643;DHT22;8435;52.184;5.406;2023-06-22T01:58:14;21.40;96.20
16643;DHT22;8435;52.184;5.406;2023-06-22T02:00:55;21.40;96.30
16643;DHT22;8435;52.184;5.406;2023-06-22T02:03:27;21.30;96.70
16643;DHT22;8435;52.184;5.406;2023-06-22T02:06:06;21.30;96.60
16643;DHT22;8435;52.184;5.406;2023-06-22T02:08:42;21.30;96.60
16643;DHT22;8435;52.184;5.406;2023-06-22T02:11:15;21.30;96.70
16643;DHT22;8435;52.184;5.406;2023-06-22T02:13:43;21.20;96.70
16643;DHT22;8435;52.184;5.406;2023-06-22T02:16:13;21.20;96.80
16643;DHT22;8435;52.184;5.406;2023-06-22T02:18:46;21.20;96.90
16643;DHT22;8435;52.184;5.406;2023-06-22T02:21:13;21.20;97.00
16643;DHT22;8435;52.184;5.406;2023-06-22T02:23:40;21.10;96.80
16643;DHT22;8435;52.184;5.406;2023-06-22T02:26:07;21.10;96.90
16643;DHT22;8435;52.184;5.406;2023-06-22T02:28:34;21.10;96.90
16643;DHT22;8435;52.184;5.406;2023-06-22T02:31:01;21.10;97.00
16643;DHT22;8435;52.184;5.406;2023-06-22T02:33:29;21.10;97.10
16643;DHT22;8435;52.184;5.406;2023-06-22T02:35:56;21.10;97.20
16643;DHT22;8435;52.184;5.406;2023-06-22T02:38:23;21.10;97.20
16643;DHT22;8435;52.184;5.406;2023-06-22T02:40:50;21.00;97.20
16643;DHT22;8435;52.184;5.406;2023-06-22T02:43:17;21.10;97.20
16643;DHT22;8435;52.184;5.406;2023-06-22T02:45:44;21.00;97.20
16643;DHT22;8435;52.184;5.406;2023-06-22T02:48:10;21.00;97.40
16643;DHT22;8435;52.184;5.406;2023-06-22T02:50:39;21.00;97.30
16643;DHT22;8435;52.184;5.406;2023-06-22T02:53:05;20.90;97.40
16643;DHT22;8435;52.184;5.406;2023-06-22T02:55:32;20.90;97.30
16643;DHT22;8435;52.184;5.406;2023-06-22T02:57:59;20.90;97.30
16643;DHT22;8435;52.184;5.406;2023-06-22T03:00:30;20.90;97.30
16643;DHT22;8435;52.184;5.406;2023-06-22T03:02:57;20.90;97.40
16643;DHT22;8435;52.184;5.406;2023-06-22T03:05:24;20.90;97.50
16643;DHT22;8435;52.184;5.406;2023-06-22T03:07:52;20.90;97.50
16643;DHT22;8435;52.184;5.406;2023-06-22T03:10:20;20.80;97.60
16643;DHT22;8435;52.184;5.406;2023-06-22T03:12:47;20.80;97.50
16643;DHT22;8435;52.184;5.406;2023-06-22T03:15:14;20.80;97.60
16643;DHT22;8435;52.184;5.406;2023-06-22T03:17:42;20.80;97.60
16643;DHT22;8435;52.184;5.406;2023-06-22T03:20:10;20.80;97.60
16643;DHT22;8435;52.184;5.406;2023-06-22T03:22:38;20.70;97.60
16643;DHT22;8435;52.184;5.406;2023-06-22T03:25:08;20.70;97.70
16643;DHT22;8435;52.184;5.406;2023-06-22T03:27:38;20.70;97.80
16643;DHT22;8435;52.184;5.406;2023-06-22T03:30:09;20.70;97.70
16643;DHT22;8435;52.184;5.406;2023-06-22T03:32:36;20.70;97.90
16643;DHT22;8435;52.184;5.406;2023-06-22T03:35:04;20.70;97.80
16643;DHT22;8435;52.184;5.406;2023-06-22T03:37:31;20.70;97.80
16643;DHT22;8435;52.184;5.406;2023-06-22T03:39:58;20.60;97.80
16643;DHT22;8435;52.184;5.406;2023-06-22T03:42:27;20.60;97.80
16643;DHT22;8435;52.184;5.406;2023-06-22T03:44:53;20.60;97.90
16643;DHT22;8435;52.184;5.406;2023-06-22T03:47:21;20.60;98.20
16643;DHT22;8435;52.184;5.406;2023-06-22T03:49:48;20.60;97.90
16643;DHT22;8435;52.184;5.406;2023-06-22T03:52:15;20.60;97.90
16643;DHT22;8435;52.184;5.406;2023-06-22T03:54:42;20.60;97.90
16643;DHT22;8435;52.184;5.406;2023-06-22T03:57:09;20.60;98.00
16643;DHT22;8435;52.184;5.406;2023-06-22T03:59:38;20.60;98.00
16643;DHT22;8435;52.184;5.406;2023-06-22T04:02:04;20.60;98.10
16643;DHT22;8435;52.184;5.406;2023-06-22T04:04:31;20.60;98.10
16643;DHT22;8435;52.184;5.406;2023-06-22T04:06:59;20.60;98.10
16643;DHT22;8435;52.184;5.406;2023-06-22T04:09:26;20.60;98.10
16643;DHT22;8435;52.184;5.406;2023-06-22T04:11:52;20.50;98.10
16643;DHT22;8435;52.184;5.406;2023-06-22T04:14:19;20.50;98.20
16643;DHT22;8435;52.184;5.406;2023-06-22T04:16:48;20.60;98.60
16643;DHT22;8435;52.184;5.406;2023-06-22T04:19:14;20.60;98.40
16643;DHT22;8435;52.184;5.406;2023-06-22T04:21:43;20.60;98.30
16643;DHT22;8435;52.184;5.406;2023-06-22T04:24:11;20.60;98.40
16643;DHT22;8435;52.184;5.406;2023-06-22T04:26:37;20.60;98.50
16643;DHT22;8435;52.184;5.406;2023-06-22T04:29:07;20.60;98.50
16643;DHT22;8435;52.184;5.406;2023-06-22T04:31:34;20.60;98.50
16643;DHT22;8435;52.184;5.406;2023-06-22T04:34:04;20.70;98.60
16643;DHT22;8435;52.184;5.406;2023-06-22T04:36:34;20.70;98.70
16643;DHT22;8435;52.184;5.406;2023-06-22T04:39:04;20.70;98.60
16643;DHT22;8435;52.184;5.406;2023-06-22T04:41:32;20.70;98.70
16643;DHT22;8435;52.184;5.406;2023-06-22T04:44:11;20.80;98.70
16643;DHT22;8435;52.184;5.406;2023-06-22T04:46:38;20.80;98.70
16643;DHT22;8435;52.184;5.406;2023-06-22T04:49:08;20.90;98.80
16643;DHT22;8435;52.184;5.406;2023-06-22T04:51:38;20.90;98.80
16643;DHT22;8435;52.184;5.406;2023-06-22T04:54:05;20.90;98.80
16643;DHT22;8435;52.184;5.406;2023-06-22T04:56:32;21.00;98.80
16643;DHT22;8435;52.184;5.406;2023-06-22T04:58:59;21.00;98.90
16643;DHT22;8435;52.184;5.406;2023-06-22T05:01:27;21.00;98.90
16643;DHT22;8435;52.184;5.406;2023-06-22T05:03:53;21.10;98.90
16643;DHT22;8435;52.184;5.406;2023-06-22T05:06:23;21.20;99.00
16643;DHT22;8435;52.184;5.406;2023-06-22T05:08:53;21.20;99.10
16643;DHT22;8435;52.184;5.406;2023-06-22T05:11:23;21.20;99.00
16643;DHT22;8435;52.184;5.406;2023-06-22T05:13:50;21.30;99.00
16643;DHT22;8435;52.184;5.406;2023-06-22T05:16:17;21.40;99.00
16643;DHT22;8435;52.184;5.406;2023-06-22T05:18:51;21.40;99.00
16643;DHT22;8435;52.184;5.406;2023-06-22T05:21:18;21.50;99.00
16643;DHT22;8435;52.184;5.406;2023-06-22T05:23:47;21.50;99.00
16643;DHT22;8435;52.184;5.406;2023-06-22T05:26:14;21.50;99.10
16643;DHT22;8435;52.184;5.406;2023-06-22T05:28:40;21.50;99.00
16643;DHT22;8435;52.184;5.406;2023-06-22T05:31:11;21.60;99.10
16643;DHT22;8435;52.184;5.406;2023-06-22T05:33:38;21.70;99.20
16643;DHT22;8435;52.184;5.406;2023-06-22T05:36:05;21.70;99.20
16643;DHT22;8435;52.184;5.406;2023-06-22T05:38:32;21.70;99.20
16643;DHT22;8435;52.184;5.406;2023-06-22T05:41:00;21.80;99.30
16643;DHT22;8435;52.184;5.406;2023-06-22T05:43:27;21.80;99.30
16643;DHT22;8435;52.184;5.406;2023-06-22T05:45:54;21.90;99.30
16643;DHT22;8435;52.184;5.406;2023-06-22T05:48:21;22.00;99.30
16643;DHT22;8435;52.184;5.406;2023-06-22T05:50:48;22.00;99.30
16643;DHT22;8435;52.184;5.406;2023-06-22T05:53:15;22.10;99.30
16643;DHT22;8435;52.184;5.406;2023-06-22T05:55:42;22.20;99.10
16643;DHT22;8435;52.184;5.406;2023-06-22T05:58:10;22.30;99.00
16643;DHT22;8435;52.184;5.406;2023-06-22T06:00:38;22.40;99.10
16643;DHT22;8435;52.184;5.406;2023-06-22T06:03:06;22.40;99.00
16643;DHT22;8435;52.184;5.406;2023-06-22T06:05:33;22.50;98.90
16643;DHT22;8435;52.184;5.406;2023-06-22T06:08:00;22.60;98.90
16643;DHT22;8435;52.184;5.406;2023-06-22T06:10:28;22.70;98.80
16643;DHT22;8435;52.184;5.406;2023-06-22T06:12:55;22.80;98.80
16643;DHT22;8435;52.184;5.406;2023-06-22T06:15:24;23.00;98.70
16643;DHT22;8435;52.184;5.406;2023-06-22T06:17:52;23.00;98.50
16643;DHT22;8435;52.184;5.406;2023-06-22T06:20:20;23.20;98.50
16643;DHT22;8435;52.184;5.406;2023-06-22T06:22:47;23.20;98.40
16643;DHT22;8435;52.184;5.406;2023-06-22T06:25:15;23.40;98.40
16643;DHT22;8435;52.184;5.406;2023-06-22T06:27:42;23.50;98.30
16643;DHT22;8435;52.184;5.406;2023-06-22T06:30:10;23.60;98.00
16643;DHT22;8435;52.184;5.406;2023-06-22T06:32:39;23.70;97.90
16643;DHT22;8435;52.184;5.406;2023-06-22T06:35:07;23.80;97.70
16643;DHT22;8435;52.184;5.406;2023-06-22T06:37:36;24.00;97.70
16643;DHT22;8435;52.184;5.406;2023-06-22T06:40:04;24.10;97.60
16643;DHT22;8435;52.184;5.406;2023-06-22T06:42:32;24.30;97.70
16643;DHT22;8435;52.184;5.406;2023-06-22T06:44:59;24.50;97.70
16643;DHT22;8435;52.184;5.406;2023-06-22T06:47:26;24.80;97.80
16643;DHT22;8435;52.184;5.406;2023-06-22T06:49:54;25.20;97.90
16643;DHT22;8435;52.184;5.406;2023-06-22T06:52:21;25.60;97.40
16643;DHT22;8435;52.184;5.406;2023-06-22T06:54:48;26.10;97.00
16643;DHT22;8435;52.184;5.406;2023-06-22T06:57:17;26.50;96.60
16643;DHT22;8435;52.184;5.406;2023-06-22T06:59:44;27.00;96.50
16643;DHT22;8435;52.184;5.406;2023-06-22T07:02:10;27.40;95.50
16643;DHT22;8435;52.184;5.406;2023-06-22T07:04:37;27.80;95.10
16643;DHT22;8435;52.184;5.406;2023-06-22T07:07:06;28.20;94.50
16643;DHT22;8435;52.184;5.406;2023-06-22T07:09:33;28.60;93.60
16643;DHT22;8435;52.184;5.406;2023-06-22T07:11:59;29.00;93.70
16643;DHT22;8435;52.184;5.406;2023-06-22T07:14:26;29.30;93.00
16643;DHT22;8435;52.184;5.406;2023-06-22T07:16:53;29.50;92.30
16643;DHT22;8435;52.184;5.406;2023-06-22T07:19:24;29.80;91.80
16643;DHT22;8435;52.184;5.406;2023-06-22T07:21:52;30.00;90.70
16643;DHT22;8435;52.184;5.406;2023-06-22T07:24:21;30.20;90.50
16643;DHT22;8435;52.184;5.406;2023-06-22T07:26:48;30.40;90.20
16643;DHT22;8435;52.184;5.406;2023-06-22T07:29:16;30.60;90.00
16643;DHT22;8435;52.184;5.406;2023-06-22T07:31:45;30.70;88.10
16643;DHT22;8435;52.184;5.406;2023-06-22T07:34:12;30.70;87.90
16643;DHT22;8435;52.184;5.406;2023-06-22T07:36:39;30.80;87.20
16643;DHT22;8435;52.184;5.406;2023-06-22T07:39:06;30.90;86.70
16643;DHT22;8435;52.184;5.406;2023-06-22T07:41:34;31.00;86.40
16643;DHT22;8435;52.184;5.406;2023-06-22T07:44:02;31.10;84.60
16643;DHT22;8435;52.184;5.406;2023-06-22T07:46:29;31.20;83.90
16643;DHT22;8435;52.184;5.406;2023-06-22T07:48:56;31.30;83.80
16643;DHT22;8435;52.184;5.406;2023-06-22T07:51:23;31.40;82.70
16643;DHT22;8435;52.184;5.406;2023-06-22T07:53:50;31.50;82.40
16643;DHT22;8435;52.184;5.406;2023-06-22T07:56:17;31.60;82.90
16643;DHT22;8435;52.184;5.406;2023-06-22T07:58:45;31.80;81.00
16643;DHT22;8435;52.184;5.406;2023-06-22T08:01:13;31.90;80.10
16643;DHT22;8435;52.184;5.406;2023-06-22T08:03:40;32.10;80.30
16643;DHT22;8435;52.184;5.406;2023-06-22T08:06:07;32.20;78.60
16643;DHT22;8435;52.184;5.406;2023-06-22T08:08:35;32.40;77.60
16643;DHT22;8435;52.184;5.406;2023-06-22T08:11:02;32.50;76.80
16643;DHT22;8435;52.184;5.406;2023-06-22T08:13:29;32.60;75.60
16643;DHT22;8435;52.184;5.406;2023-06-22T08:15:57;32.70;75.30
16643;DHT22;8435;52.184;5.406;2023-06-22T08:18:24;32.70;73.60
16643;DHT22;8435;52.184;5.406;2023-06-22T08:20:51;32.80;74.80
16643;DHT22;8435;52.184;5.406;2023-06-22T08:23:18;32.90;73.90
16643;DHT22;8435;52.184;5.406;2023-06-22T08:25:45;33.00;73.40
16643;DHT22;8435;52.184;5.406;2023-06-22T08:28:13;33.00;72.20
16643;DHT22;8435;52.184;5.406;2023-06-22T08:30:40;33.10;71.30
16643;DHT22;8435;52.184;5.406;2023-06-22T08:33:08;33.20;70.40
16643;DHT22;8435;52.184;5.406;2023-06-22T08:35:35;33.20;69.90
16643;DHT22;8435;52.184;5.406;2023-06-22T08:38:02;33.30;70.10
16643;DHT22;8435;52.184;5.406;2023-06-22T08:40:35;33.30;68.60
16643;DHT22;8435;52.184;5.406;2023-06-22T08:43:02;33.40;66.60
16643;DHT22;8435;52.184;5.406;2023-06-22T08:45:29;33.30;66.20
16643;DHT22;8435;52.184;5.406;2023-06-22T08:47:56;33.20;65.60
16643;DHT22;8435;52.184;5.406;2023-06-22T08:50:24;33.10;65.70
16643;DHT22;8435;52.184;5.406;2023-06-22T08:52:51;33.00;65.40
16643;DHT22;8435;52.184;5.406;2023-06-22T08:55:18;33.00;65.50
16643;DHT22;8435;52.184;5.406;2023-06-22T08:57:45;32.90;64.90
16643;DHT22;8435;52.184;5.406;2023-06-22T09:00:12;32.80;65.20
16643;DHT22;8435;52.184;5.406;2023-06-22T09:02:43;32.70;65.20
16643;DHT22;8435;52.184;5.406;2023-06-22T09:05:10;32.60;65.50
16643;DHT22;8435;52.184;5.406;2023-06-22T09:07:38;32.50;64.60
16643;DHT22;8435;52.184;5.406;2023-06-22T09:10:05;32.40;64.30
16643;DHT22;8435;52.184;5.406;2023-06-22T09:12:33;32.30;65.20
16643;DHT22;8435;52.184;5.406;2023-06-22T09:15:03;32.10;65.70
16643;DHT22;8435;52.184;5.406;2023-06-22T09:17:32;32.10;65.80
16643;DHT22;8435;52.184;5.406;2023-06-22T09:19:59;32.00;64.20
16643;DHT22;8435;52.184;5.406;2023-06-22T09:22:27;31.90;65.00
16643;DHT22;8435;52.184;5.406;2023-06-22T09:24:56;31.90;64.80
16643;DHT22;8435;52.184;5.406;2023-06-22T09:27:23;31.80;64.90
16643;DHT22;8435;52.184;5.406;2023-06-22T09:29:52;31.70;64.90
16643;DHT22;8435;52.184;5.406;2023-06-22T09:32:19;31.70;65.60
16643;DHT22;8435;52.184;5.406;2023-06-22T09:34:45;31.70;65.70
16643;DHT22;8435;52.184;5.406;2023-06-22T09:37:12;31.70;66.50
16643;DHT22;8435;52.184;5.406;2023-06-22T09:39:39;31.70;65.90
16643;DHT22;8435;52.184;5.406;2023-06-22T09:42:08;31.70;66.50
16643;DHT22;8435;52.184;5.406;2023-06-22T09:44:35;31.80;65.70
16643;DHT22;8435;52.184;5.406;2023-06-22T09:47:02;31.80;65.00
16643;DHT22;8435;52.184;5.406;2023-06-22T09:49:28;31.90;64.30
16643;DHT22;8435;52.184;5.406;2023-06-22T09:51:55;31.90;63.90
16643;DHT22;8435;52.184;5.406;2023-06-22T09:54:23;32.00;63.90
16643;DHT22;8435;52.184;5.406;2023-06-22T09:56:49;32.00;64.10
16643;DHT22;8435;52.184;5.406;2023-06-22T09:59:18;32.00;63.90
16643;DHT22;8435;52.184;5.406;2023-06-22T10:01:44;32.10;64.50
16643;DHT22;8435;52.184;5.406;2023-06-22T10:04:11;32.00;65.20
16643;DHT22;8435;52.184;5.406;2023-06-22T10:06:38;32.00;66.20
16643;DHT22;8435;52.184;5.406;2023-06-22T10:09:06;31.90;66.70
16643;DHT22;8435;52.184;5.406;2023-06-22T10:11:33;31.90;67.10
16643;DHT22;8435;52.184;5.406;2023-06-22T10:14:00;31.80;67.20
16643;DHT22;8435;52.184;5.406;2023-06-22T10:16:32;31.70;68.00
16643;DHT22;8435;52.184;5.406;2023-06-22T10:19:01;31.60;68.50
16643;DHT22;8435;52.184;5.406;2023-06-22T10:21:28;31.50;69.20
16643;DHT22;8435;52.184;5.406;2023-06-22T10:23:55;31.40;68.80
16643;DHT22;8435;52.184;5.406;2023-06-22T10:26:22;31.30;69.10
16643;DHT22;8435;52.184;5.406;2023-06-22T10:28:50;31.20;69.70
16643;DHT22;8435;52.184;5.406;2023-06-22T10:31:17;31.10;70.20
16643;DHT22;8435;52.184;5.406;2023-06-22T10:33:45;30.90;70.50
16643;DHT22;8435;52.184;5.406;2023-06-22T10:36:12;30.80;70.80
16643;DHT22;8435;52.184;5.406;2023-06-22T10:38:45;30.60;71.50
16643;DHT22;8435;52.184;5.406;2023-06-22T10:41:13;30.50;72.10
16643;DHT22;8435;52.184;5.406;2023-06-22T10:43:40;30.40;72.00
16643;DHT22;8435;52.184;5.406;2023-06-22T10:46:07;30.30;72.90
16643;DHT22;8435;52.184;5.406;2023-06-22T10:48:34;30.10;72.60
16643;DHT22;8435;52.184;5.406;2023-06-22T10:51:02;30.00;72.90
16643;DHT22;8435;52.184;5.406;2023-06-22T10:53:29;29.90;72.90
16643;DHT22;8435;52.184;5.406;2023-06-22T10:55:56;29.80;72.40
16643;DHT22;8435;52.184;5.406;2023-06-22T10:58:23;29.70;72.50
16643;DHT22;8435;52.184;5.406;2023-06-22T11:00:49;29.60;73.20
16643;DHT22;8435;52.184;5.406;2023-06-22T11:03:16;29.50;73.70
16643;DHT22;8435;52.184;5.406;2023-06-22T11:05:43;29.40;74.10
16643;DHT22;8435;52.184;5.406;2023-06-22T11:08:11;29.30;74.70
16643;DHT22;8435;52.184;5.406;2023-06-22T11:10:38;29.30;75.00
16643;DHT22;8435;52.184;5.406;2023-06-22T11:13:05;29.20;75.10
16643;DHT22;8435;52.184;5.406;2023-06-22T11:15:35;29.20;75.20
16643;DHT22;8435;52.184;5.406;2023-06-22T11:18:02;29.10;75.50
16643;DHT22;8435;52.184;5.406;2023-06-22T11:20:30;29.10;75.70
16643;DHT22;8435;52.184;5.406;2023-06-22T11:22:59;29.10;75.70
16643;DHT22;8435;52.184;5.406;2023-06-22T11:25:28;29.00;75.80
16643;DHT22;8435;52.184;5.406;2023-06-22T11:27:55;29.00;76.30
16643;DHT22;8435;52.184;5.406;2023-06-22T11:30:21;29.00;76.20
16643;DHT22;8435;52.184;5.406;2023-06-22T11:32:48;29.00;76.80
16643;DHT22;8435;52.184;5.406;2023-06-22T11:35:18;29.00;76.90
16643;DHT22;8435;52.184;5.406;2023-06-22T11:37:45;29.00;77.50
16643;DHT22;8435;52.184;5.406;2023-06-22T11:40:12;29.00;77.40
16643;DHT22;8435;52.184;5.406;2023-06-22T11:42:43;29.00;77.90
16643;DHT22;8435;52.184;5.406;2023-06-22T11:45:11;29.10;78.20
16643;DHT22;8435;52.184;5.406;2023-06-22T11:47:38;29.10;78.20
16643;DHT22;8435;52.184;5.406;2023-06-22T11:50:06;29.10;78.20
16643;DHT22;8435;52.184;5.406;2023-06-22T11:52:33;29.20;78.20
16643;DHT22;8435;52.184;5.406;2023-06-22T11:55:01;29.20;78.30
16643;DHT22;8435;52.184;5.406;2023-06-22T11:57:29;29.20;78.40
16643;DHT22;8435;52.184;5.406;2023-06-22T11:59:57;29.20;78.60
16643;DHT22;8435;52.184;5.406;2023-06-22T12:02:24;29.30;78.70
16643;DHT22;8435;52.184;5.406;2023-06-22T12:04:51;29.30;78.60
16643;DHT22;8435;52.184;5.406;2023-06-22T12:07:20;29.40;78.10
16643;DHT22;8435;52.184;5.406;2023-06-22T12:09:47;29.40;77.80
16643;DHT22;8435;52.184;5.406;2023-06-22T12:12:13;29.40;78.00
16643;DHT22;8435;52.184;5.406;2023-06-22T12:14:40;29.40;77.80
16643;DHT22;8435;52.184;5.406;2023-06-22T12:17:08;29.50;77.80
16643;DHT22;8435;52.184;5.406;2023-06-22T12:19:35;29.50;78.10
16643;DHT22;8435;52.184;5.406;2023-06-22T12:22:03;29.50;77.60
16643;DHT22;8435;52.184;5.406;2023-06-22T12:24:30;29.50;77.40
16643;DHT22;8435;52.184;5.406;2023-06-22T12:26:57;29.50;77.60
16643;DHT22;8435;52.184;5.406;2023-06-22T12:29:24;29.50;77.60
16643;DHT22;8435;52.184;5.406;2023-06-22T12:31:53;29.50;77.20
16643;DHT22;8435;52.184;5.406;2023-06-22T12:34:22;29.50;76.80
16643;DHT22;8435;52.184;5.406;2023-06-22T12:36:49;29.50;77.10
16643;DHT22;8435;52.184;5.406;2023-06-22T12:39:16;29.50;77.00
16643;DHT22;8435;52.184;5.406;2023-06-22T12:41:42;29.40;76.90
16643;DHT22;8435;52.184;5.406;2023-06-22T12:44:09;29.40;76.30
16643;DHT22;8435;52.184;5.406;2023-06-22T12:46:36;29.30;76.20
16643;DHT22;8435;52.184;5.406;2023-06-22T12:49:04;29.30;76.50
16643;DHT22;8435;52.184;5.406;2023-06-22T12:51:32;29.20;77.00
16643;DHT22;8435;52.184;5.406;2023-06-22T12:53:59;29.10;79.10
16643;DHT22;8435;52.184;5.406;2023-06-22T12:56:26;29.10;79.80
16643;DHT22;8435;52.184;5.406;2023-06-22T12:58:53;29.00;80.90
16643;DHT22;8435;52.184;5.406;2023-06-22T13:01:20;28.90;81.70
16643;DHT22;8435;52.184;5.406;2023-06-22T13:03:47;28.80;81.30
16643;DHT22;8435;52.184;5.406;2023-06-22T13:06:14;28.80;82.20
16643;DHT22;8435;52.184;5.406;2023-06-22T13:08:42;28.60;82.20
16643;DHT22;8435;52.184;5.406;2023-06-22T13:11:09;28.50;83.20
16643;DHT22;8435;52.184;5.406;2023-06-22T13:13:36;28.40;84.00
16643;DHT22;8435;52.184;5.406;2023-06-22T13:16:03;28.30;85.10
16643;DHT22;8435;52.184;5.406;2023-06-22T13:18:30;28.30;86.20
16643;DHT22;8435;52.184;5.406;2023-06-22T13:20:57;28.20;87.30
16643;DHT22;8435;52.184;5.406;2023-06-22T13:23:24;28.10;87.60
16643;DHT22;8435;52.184;5.406;2023-06-22T13:25:52;28.00;88.20
16643;DHT22;8435;52.184;5.406;2023-06-22T13:28:19;27.90;90.10
16643;DHT22;8435;52.184;5.406;2023-06-22T13:30:46;27.90;90.40
16643;DHT22;8435;52.184;5.406;2023-06-22T13:33:16;27.80;90.50
16643;DHT22;8435;52.184;5.406;2023-06-22T13:35:46;27.70;90.90
16643;DHT22;8435;52.184;5.406;2023-06-22T13:38:15;27.60;91.20
16643;DHT22;8435;52.184;5.406;2023-06-22T13:40:43;27.50;91.40
16643;DHT22;8435;52.184;5.406;2023-06-22T13:43:11;27.40;91.60
16643;DHT22;8435;52.184;5.406;2023-06-22T13:45:38;27.30;92.10
16643;DHT22;8435;52.184;5.406;2023-06-22T13:48:05;27.30;92.60
16643;DHT22;8435;52.184;5.406;2023-06-22T13:50:32;27.20;93.00
16643;DHT22;8435;52.184;5.406;2023-06-22T13:53:01;27.10;93.30
16643;DHT22;8435;52.184;5.406;2023-06-22T13:55:28;27.00;93.50
16643;DHT22;8435;52.184;5.406;2023-06-22T13:57:56;27.00;93.90
16643;DHT22;8435;52.184;5.406;2023-06-22T14:00:24;26.90;94.20
16643;DHT22;8435;52.184;5.406;2023-06-22T14:02:52;26.80;94.50
16643;DHT22;8435;52.184;5.406;2023-06-22T14:05:19;26.70;94.60
16643;DHT22;8435;52.184;5.406;2023-06-22T14:07:46;26.70;94.40
16643;DHT22;8435;52.184;5.406;2023-06-22T14:10:13;26.60;94.60
16643;DHT22;8435;52.184;5.406;2023-06-22T14:12:39;26.50;94.60
16643;DHT22;8435;52.184;5.406;2023-06-22T14:15:12;26.50;94.60
16643;DHT22;8435;52.184;5.406;2023-06-22T14:17:46;26.40;94.60
16643;DHT22;8435;52.184;5.406;2023-06-22T14:20:12;26.30;95.00
16643;DHT22;8435;52.184;5.406;2023-06-22T14:22:39;26.20;95.40
16643;DHT22;8435;52.184;5.406;2023-06-22T14:25:07;26.20;95.90
16643;DHT22;8435;52.184;5.406;2023-06-22T14:27:34;26.10;95.90
16643;DHT22;8435;52.184;5.406;2023-06-22T14:30:00;26.00;95.50
16643;DHT22;8435;52.184;5.406;2023-06-22T14:32:28;26.00;95.70
16643;DHT22;8435;52.184;5.406;2023-06-22T14:34:56;26.00;95.70
16643;DHT22;8435;52.184;5.406;2023-06-22T14:37:23;25.90;96.30
16643;DHT22;8435;52.184;5.406;2023-06-22T14:39:50;25.80;96.00
16643;DHT22;8435;52.184;5.406;2023-06-22T14:42:17;25.80;96.10
16643;DHT22;8435;52.184;5.406;2023-06-22T14:44:44;25.70;96.20
16643;DHT22;8435;52.184;5.406;2023-06-22T14:47:11;25.70;96.20
16643;DHT22;8435;52.184;5.406;2023-06-22T14:49:37;25.60;96.60
16643;DHT22;8435;52.184;5.406;2023-06-22T14:52:08;25.50;96.30
16643;DHT22;8435;52.184;5.406;2023-06-22T14:54:35;25.50;96.50
16643;DHT22;8435;52.184;5.406;2023-06-22T14:57:04;25.40;96.50
16643;DHT22;8435;52.184;5.406;2023-06-22T14:59:32;25.40;96.70
16643;DHT22;8435;52.184;5.406;2023-06-22T15:02:01;25.30;96.60
16643;DHT22;8435;52.184;5.406;2023-06-22T15:04:28;25.20;96.70
16643;DHT22;8435;52.184;5.406;2023-06-22T15:07:01;25.10;96.80
16643;DHT22;8435;52.184;5.406;2023-06-22T15:09:29;25.10;97.00
16643;DHT22;8435;52.184;5.406;2023-06-22T15:11:56;25.00;96.90
16643;DHT22;8435;52.184;5.406;2023-06-22T15:14:24;24.90;97.00
16643;DHT22;8435;52.184;5.406;2023-06-22T15:16:51;24.90;97.10
16643;DHT22;8435;52.184;5.406;2023-06-22T15:19:19;24.80;97.50
16643;DHT22;8435;52.184;5.406;2023-06-22T15:21:46;24.70;97.40
16643;DHT22;8435;52.184;5.406;2023-06-22T15:24:13;24.70;97.60
16643;DHT22;8435;52.184;5.406;2023-06-22T15:26:41;24.60;97.60
16643;DHT22;8435;52.184;5.406;2023-06-22T15:29:08;24.50;97.90
16643;DHT22;8435;52.184;5.406;2023-06-22T15:31:35;24.50;98.10
16643;DHT22;8435;52.184;5.406;2023-06-22T15:34:02;24.50;98.40
16643;DHT22;8435;52.184;5.406;2023-06-22T15:36:29;24.50;98.50
16643;DHT22;8435;52.184;5.406;2023-06-22T15:38:56;24.50;98.40
16643;DHT22;8435;52.184;5.406;2023-06-22T15:41:25;24.50;98.30
16643;DHT22;8435;52.184;5.406;2023-06-22T15:43:55;24.40;98.80
16643;DHT22;8435;52.184;5.406;2023-06-22T15:46:22;24.40;98.70
16643;DHT22;8435;52.184;5.406;2023-06-22T15:48:49;24.40;98.60
16643;DHT22;8435;52.184;5.406;2023-06-22T15:51:16;24.40;98.90